NCAR-RAP Real-Time Weather Data

Output produced by METARs form (06 May 2021  15:37 UTC)
found at http://weather.rap.ucar.edu/surface/
 
KHBG 061453Z AUTO 06006KT 10SM CLR 21/13 A3018 RMK AO2 SLP217 T02060128 50009
KHBG 061353Z AUTO VRB06KT 10SM CLR 19/13 A3018 RMK AO2 SLP219 T01890128
KHBG 061253Z AUTO VRB04KT 10SM CLR 16/13 A3015 RMK AO2 SLP209 T01610128
KHBG 061153Z AUTO 35004KT 10SM CLR 14/12 A3015 RMK AO2 SLP207 T01440122 10161 20144 53016
KHBG 061053Z AUTO 34004KT 10SM CLR 14/13 A3012 RMK AO2 SLP198 T01440128
KHBG 060953Z AUTO 32004KT 10SM SCT033 14/13 A3011 RMK AO2 SLP193 T01440133
KHBG 060853Z AUTO 00000KT 10SM BKN034 14/13 A3010 RMK AO2 SLP191 T01440133 55000
KHBG 060753Z AUTO 00000KT 10SM CLR 15/13 A3010 RMK AO2 SLP189 T01500133
KHBG 060653Z AUTO 00000KT 10SM CLR 16/14 A3010 RMK AO2 SLP189 T01560139
KHBG 060553Z AUTO 00000KT 10SM CLR 16/14 A3010 RMK AO2 SLP191 T01610144 10222 20161 402560161 50001
KHBG 060453Z AUTO 00000KT 10SM CLR 16/14 A3010 RMK AO2 SLP191 T01610144
KHBG 060353Z AUTO 00000KT 10SM CLR 17/15 A3010 RMK AO2 SLP191 T01670150
KHBG 060253Z AUTO 00000KT 10SM CLR 19/16 A3010 RMK AO2 SLP190 T01890156 53016
KHBG 060153Z AUTO 34005KT 10SM CLR 20/16 A3008 RMK AO2 SLP183 T02000156
KHBG 060053Z AUTO 35006KT 10SM CLR 21/16 A3006 RMK AO2 SLP176 T02110161